TVF36UQ LGTS-LFPO
Flight info
| Callsign | TVF36UQ |
|---|---|
| Flight time | N/A |
| Altitude | 36000 |
| Route | DCT EDASI N146 BEKVA DCT DOBAR DCT BAXON DCT NISIL DCT GIBLO DCT INVOP DCT CERVI DCT MOLUS DCT UNKIR DCT DJL DCT |
| Aircraft | B738/M-SDE2E3FGHIRWXY/LB1 |
Departure
| Time | N/A |
|---|---|
| Airport | Thessaloniki Macedonia International Airport (LGTS) |
Arrival
| Time | 2026-05-04 17:40 |
|---|---|
| Airport | Paris-Orly Airport (LFPO) |
| Time | Latitude | Longitude | Altitude | Speed | Heading |
|---|---|---|---|---|---|
| 2026-05-04 17:29 | 48.63413 | 1.43998 | 9461 ft | 296 kts | 95° |
| 2026-05-04 17:30 | 48.62906 | 1.53235 | 8502 ft | 292 kts | 95° |
| 2026-05-04 17:31 | 48.62568 | 1.59323 | 7852 ft | 290 kts | 95° |
| 2026-05-04 17:31 | 48.62061 | 1.68351 | 6948 ft | 285 kts | 95° |
| 2026-05-04 17:32 | 48.61724 | 1.74288 | 6348 ft | 282 kts | 95° |
| 2026-05-04 17:33 | 48.61218 | 1.83083 | 5458 ft | 278 kts | 95° |
| 2026-05-04 17:33 | 48.61050 | 1.85985 | 5174 ft | 277 kts | 95° |
| 2026-05-04 17:34 | 48.60555 | 1.94488 | 4527 ft | 263 kts | 95° |
| 2026-05-04 17:34 | 48.60396 | 1.97202 | 4395 ft | 256 kts | 94° |
| 2026-05-04 17:35 | 48.62337 | 2.04059 | 4074 ft | 224 kts | 62° |
| 2026-05-04 17:35 | 48.63698 | 2.08003 | 3778 ft | 204 kts | 62° |
| 2026-05-04 17:35 | 48.64353 | 2.09883 | 3530 ft | 200 kts | 62° |
| 2026-05-04 17:36 | 48.64989 | 2.11701 | 3265 ft | 190 kts | 62° |
| 2026-05-04 17:36 | 48.65590 | 2.13418 | 3012 ft | 179 kts | 62° |
| 2026-05-04 17:36 | 48.66158 | 2.15042 | 2769 ft | 171 kts | 62° |
| 2026-05-04 17:36 | 48.66717 | 2.16635 | 2560 ft | 172 kts | 62° |
| 2026-05-04 17:37 | 48.67258 | 2.18179 | 2334 ft | 163 kts | 62° |
| 2026-05-04 17:37 | 48.67784 | 2.19678 | 2132 ft | 161 kts | 62° |
| 2026-05-04 17:37 | 48.68307 | 2.21172 | 1909 ft | 160 kts | 62° |
| 2026-05-04 17:37 | 48.68825 | 2.22647 | 1700 ft | 158 kts | 62° |
| 2026-05-04 17:38 | 48.69338 | 2.24110 | 1491 ft | 157 kts | 62° |
| 2026-05-04 17:38 | 48.69854 | 2.25576 | 1283 ft | 158 kts | 62° |
| 2026-05-04 17:38 | 48.70368 | 2.27040 | 1074 ft | 157 kts | 62° |
| 2026-05-04 17:38 | 48.70868 | 2.28506 | 856 ft | 157 kts | 62° |
| 2026-05-04 17:39 | 48.71885 | 2.31368 | 408 ft | 153 kts | 62° |
| 2026-05-04 17:39 | 48.72387 | 2.32784 | 295 ft | 148 kts | 62° |
| 2026-05-04 17:39 | 48.72788 | 2.33933 | 292 ft | 93 kts | 62° |
| 2026-05-04 17:40 | 48.72994 | 2.34517 | 289 ft | 42 kts | 61° |
| 2026-05-04 17:40 | 48.73129 | 2.34893 | 290 ft | 39 kts | 62° |
| 2026-05-04 17:40 | 48.73252 | 2.35242 | 289 ft | 37 kts | 62° |
| 2026-05-04 17:40 | 48.73264 | 2.35424 | 290 ft | 14 kts | 122° |
| 2026-05-04 17:41 | 48.73187 | 2.35508 | 290 ft | 13 kts | 145° |
| 2026-05-04 17:41 | 48.73110 | 2.35583 | 290 ft | 13 kts | 148° |
| 2026-05-04 17:41 | 48.73038 | 2.35600 | 290 ft | 11 kts | 233° |
| 2026-05-04 17:41 | 48.72980 | 2.35532 | 290 ft | 10 kts | 205° |
| 2026-05-04 17:42 | 48.72912 | 2.35534 | 290 ft | 10 kts | 164° |
| 2026-05-04 17:42 | 48.72845 | 2.35564 | 290 ft | 10 kts | 162° |
| 2026-05-04 17:42 | 48.72784 | 2.35604 | 290 ft | 10 kts | 130° |
| 2026-05-04 17:42 | 48.72785 | 2.35702 | 290 ft | 10 kts | 77° |
| 2026-05-04 17:43 | 48.72832 | 2.35750 | 290 ft | 5 kts | 11° |
| 2026-05-04 17:43 | 48.72838 | 2.35752 | 290 ft | 0 kts | 12° |